Time;durP1;ratioP1;P1;durP2;ratioP2;P2;SDS_P1;SDS_P2;PMS_P1;PMS_P2;Temp;Humidity;BMP_temperature;BMP_pressure;BME280_temperature;BME280_humidity;BME280_pressure;Samples;Min_cycle;Max_cycle;Signal;HPM_P1;HPM_P2
2022/08/31 00:04:49;;;;;;;4.40;3.80;;;18.40;99.90;19.70;97044.00;;;;5061375;28;20204;-88
2022/08/31 00:07:41;;;;;;;6.40;3.00;;;18.40;99.90;19.50;97047.00;;;;5065917;28;20708;-87
2022/08/31 00:10:48;;;;;;;5.37;3.83;;;18.30;99.90;19.50;97043.00;;;;5065447;28;20197;-88
2022/08/31 00:13:37;;;;;;;7.47;4.00;;;18.30;99.90;19.60;97043.00;;;;5065721;28;20239;-88
2022/08/31 00:16:38;;;;;;;5.73;3.80;;;18.30;99.90;19.70;97042.00;;;;5063519;28;20201;-89
2022/08/31 00:19:37;;;;;;;12.33;3.90;;;18.30;99.90;20.00;97037.00;;;;5069389;28;20595;-86
2022/08/31 00:22:26;;;;;;;6.63;4.23;;;18.30;99.90;19.60;97033.00;;;;5060533;28;20763;-87
2022/08/31 00:25:22;;;;;;;6.07;4.37;;;18.40;99.90;19.40;97028.00;;;;5051420;28;20212;-88
2022/08/31 00:28:15;;;;;;;7.20;3.97;;;18.30;99.90;19.30;97030.00;;;;5065330;28;20706;-88
2022/08/31 00:31:06;;;;;;;4.07;3.70;;;18.20;99.90;19.10;97032.00;;;;5064444;28;20211;-88
2022/08/31 00:34:18;;;;;;;6.83;4.70;;;18.10;99.90;19.30;97028.00;;;;5065159;28;20204;-87
2022/08/31 00:37:14;;;;;;;5.40;3.47;;;18.00;99.90;19.50;97027.00;;;;5064800;28;20200;-88
2022/08/31 00:40:08;;;;;;;7.20;4.00;;;18.80;99.90;19.50;97017.00;;;;5054832;28;20196;-88
2022/08/31 00:43:00;;;;;;;5.10;3.20;;;18.10;99.90;19.50;97017.00;;;;5067420;28;20234;-88
2022/08/31 00:46:00;;;;;;;5.77;3.97;;;18.10;99.90;19.40;97016.00;;;;5065960;28;20200;-88
2022/08/31 00:49:01;;;;;;;6.20;3.73;;;18.10;99.90;19.10;97012.00;;;;5059797;28;20252;-88
2022/08/31 00:51:55;;;;;;;11.80;4.60;;;18.10;99.90;19.10;97011.00;;;;5052486;28;20223;-88
2022/08/31 00:54:51;;;;;;;7.60;4.10;;;18.00;99.90;19.10;97010.00;;;;5070650;28;20220;-88
2022/08/31 00:57:43;;;;;;;6.07;4.27;;;17.90;99.90;18.90;97010.00;;;;5070498;28;20708;-87
2022/08/31 01:00:33;;;;;;;9.47;3.83;;;17.90;99.90;18.90;97006.00;;;;5055407;28;20709;-87
2022/08/31 01:03:23;;;;;;;5.20;4.20;;;17.80;99.90;19.10;97004.00;;;;5058960;28;20220;-88
2022/08/31 01:06:12;;;;;;;4.63;3.67;;;17.80;99.90;19.30;97006.00;;;;5063276;28;20213;-88
2022/08/31 01:09:31;;;;;;;6.97;3.70;;;17.80;99.90;19.00;97004.00;;;;5067632;28;20675;-87
2022/08/31 01:12:32;;;;;;;5.63;3.47;;;17.90;99.90;18.90;96993.00;;;;5067466;28;20212;-88
2022/08/31 01:15:33;;;;;;;5.17;3.83;;;18.30;99.90;18.80;97001.00;;;;5069038;28;20220;-87
2022/08/31 01:18:51;;;;;;;6.03;4.63;;;17.70;99.90;18.90;96989.00;;;;5065165;28;20208;-87
2022/08/31 01:21:59;;;;;;;6.47;4.50;;;17.30;99.90;18.90;96993.00;;;;5055953;28;20208;-87
2022/08/31 01:24:52;;;;;;;8.83;4.20;;;17.30;99.90;18.80;96990.00;;;;5051943;28;20207;-87
2022/08/31 01:27:41;;;;;;;4.00;3.53;;;17.60;99.90;18.70;96988.00;;;;5068892;28;20203;-88
2022/08/31 01:30:30;;;;;;;6.90;4.33;;;17.60;99.90;18.80;96989.00;;;;5054615;28;20201;-87
2022/08/31 01:33:19;;;;;;;4.67;3.83;;;17.60;99.90;18.40;96998.00;;;;5057528;28;20219;-88
2022/08/31 01:36:09;;;;;;;6.53;4.00;;;17.50;99.90;18.50;96990.00;;;;5050963;28;20219;-89
2022/08/31 01:39:01;;;;;;;5.77;4.17;;;17.50;99.90;18.70;96985.00;;;;5059006;28;20684;-87
2022/08/31 01:41:52;;;;;;;9.13;3.90;;;17.40;99.90;19.00;96989.00;;;;5070165;28;20215;-87
2022/08/31 01:44:41;;;;;;;7.30;3.80;;;17.50;99.90;19.10;96989.00;;;;5051607;28;20200;-88
2022/08/31 01:47:30;;;;;;;6.17;3.87;;;17.60;99.90;19.20;96981.00;;;;5051062;28;20207;-87
2022/08/31 01:50:19;;;;;;;7.93;4.27;;;17.60;99.90;19.30;96974.00;;;;5069232;28;20203;-87
2022/08/31 01:53:08;;;;;;;6.20;3.60;;;17.80;99.90;19.30;96971.00;;;;5063499;28;20225;-87
2022/08/31 01:55:57;;;;;;;4.57;3.90;;;17.80;99.90;18.90;96979.00;;;;5067470;28;20220;-88
2022/08/31 01:58:47;;;;;;;8.17;4.30;;;17.80;99.90;18.60;96976.00;;;;5067444;28;20196;-87
2022/08/31 02:01:43;;;;;;;7.30;4.03;;;17.70;99.90;18.50;96975.00;;;;5067716;28;20207;-87
2022/08/31 02:04:32;;;;;;;7.70;4.10;;;17.60;99.90;18.70;96973.00;;;;5061005;28;20245;-88
2022/08/31 02:07:20;;;;;;;4.87;3.30;;;17.50;99.90;19.00;96975.00;;;;5068022;28;20196;-88
2022/08/31 02:10:10;;;;;;;5.27;3.80;;;17.50;99.90;19.10;96970.00;;;;5060640;28;20201;-88
2022/08/31 02:12:59;;;;;;;6.20;4.20;;;17.60;99.90;18.90;96968.00;;;;5051594;28;20228;-87
2022/08/31 02:15:50;;;;;;;5.07;4.10;;;17.60;99.90;18.60;96966.00;;;;5069158;28;20235;-87
2022/08/31 02:18:38;;;;;;;9.33;4.03;;;17.60;99.90;18.60;96971.00;;;;5068104;28;20192;-87
2022/08/31 02:21:27;;;;;;;7.60;5.17;;;17.50;99.90;18.60;96960.00;;;;5067006;28;20199;-87
2022/08/31 02:24:16;;;;;;;5.43;3.67;;;17.50;99.90;18.60;96960.00;;;;5067244;28;20847;-88
2022/08/31 02:27:05;;;;;;;4.53;3.70;;;17.50;99.90;18.70;96956.00;;;;5067734;28;20204;-88
2022/08/31 02:29:54;;;;;;;7.30;4.70;;;17.50;99.90;18.80;96963.00;;;;5064370;28;20188;-89
2022/08/31 02:32:45;;;;;;;4.47;3.73;;;17.40;99.90;18.90;96961.00;;;;5051091;28;20228;-88
2022/08/31 02:35:34;;;;;;;3.73;3.40;;;17.50;99.90;19.00;96956.00;;;;5050875;28;20232;-88
2022/08/31 02:38:23;;;;;;;6.40;3.97;;;17.50;99.90;18.80;96959.00;;;;5068785;28;20192;-88
2022/08/31 02:41:12;;;;;;;5.77;3.90;;;17.60;99.90;18.40;96952.00;;;;5052679;28;20276;-88
2022/08/31 02:44:00;;;;;;;4.27;3.87;;;17.50;99.90;18.60;96958.00;;;;5062707;28;20193;-88
2022/08/31 02:46:49;;;;;;;7.17;3.83;;;17.50;99.90;18.80;96951.00;;;;5051746;28;20196;-89
2022/08/31 02:49:39;;;;;;;5.23;4.10;;;17.50;99.90;18.90;96955.00;;;;5054794;28;20200;-88
2022/08/31 02:52:28;;;;;;;8.43;3.83;;;17.50;99.90;18.90;96949.00;;;;5051373;28;20228;-88
2022/08/31 02:55:17;;;;;;;5.23;4.03;;;17.50;99.90;18.90;96948.00;;;;5051377;28;20224;-87
2022/08/31 02:58:07;;;;;;;4.60;4.00;;;17.50;99.90;18.90;96948.00;;;;5059513;28;20193;-89
2022/08/31 03:00:56;;;;;;;6.57;4.30;;;17.60;99.90;18.90;96943.00;;;;5051173;28;20207;-89
2022/08/31 03:03:44;;;;;;;7.77;3.90;;;17.60;99.90;18.70;96942.00;;;;5060931;28;20223;-88
2022/08/31 03:06:35;;;;;;;5.33;3.80;;;17.50;99.90;18.30;96942.00;;;;5060469;28;20861;-88
2022/08/31 03:09:24;;;;;;;8.47;3.83;;;17.40;99.90;18.30;96947.00;;;;5060300;28;20208;-87
2022/08/31 03:12:12;;;;;;;6.43;3.83;;;17.40;99.90;18.20;96946.00;;;;5054400;28;20230;-88
2022/08/31 03:15:01;;;;;;;5.60;4.50;;;17.30;99.90;18.10;96948.00;;;;5053264;28;20193;-87
2022/08/31 03:17:50;;;;;;;7.63;4.37;;;17.20;99.90;17.90;96945.00;;;;5057198;28;20200;-87
2022/08/31 03:20:39;;;;;;;8.93;4.10;;;17.10;99.90;18.20;96949.00;;;;5061672;28;20185;-88
2022/08/31 03:23:30;;;;;;;4.80;3.53;;;16.80;99.90;18.40;96943.00;;;;5056472;28;20249;-88
2022/08/31 03:26:20;;;;;;;6.43;4.00;;;17.10;99.90;18.30;96955.00;;;;5067398;28;20196;-88
2022/08/31 03:29:08;;;;;;;4.60;4.07;;;17.10;99.90;18.00;96953.00;;;;5057883;28;20592;-88
2022/08/31 03:31:57;;;;;;;5.17;3.93;;;17.00;99.90;18.00;96953.00;;;;5050769;28;20220;-89
2022/08/31 03:34:46;;;;;;;7.73;3.83;;;17.00;99.90;18.10;96953.00;;;;5051565;28;20192;-89
2022/08/31 03:37:35;;;;;;;5.13;3.77;;;16.90;99.90;18.20;96949.00;;;;5053341;28;20215;-88
2022/08/31 03:40:25;;;;;;;5.37;4.07;;;16.90;99.90;18.20;96944.00;;;;5053544;28;20211;-88
2022/08/31 03:43:14;;;;;;;5.43;4.53;;;16.90;99.90;18.30;96938.00;;;;5060116;28;20223;-89
2022/08/31 03:46:03;;;;;;;6.73;4.90;;;17.00;99.90;18.30;96937.00;;;;5051274;28;20583;-88
2022/08/31 03:48:53;;;;;;;5.33;4.37;;;17.00;99.90;18.00;96946.00;;;;5060636;28;20211;-89
2022/08/31 03:51:42;;;;;;;4.20;3.57;;;17.00;99.90;17.70;96940.00;;;;5052443;28;20201;-87
2022/08/31 03:54:31;;;;;;;4.93;3.73;;;16.90;99.90;17.70;96947.00;;;;5058834;28;20193;-88
2022/08/31 03:57:21;;;;;;;4.70;4.30;;;16.80;99.90;17.70;96944.00;;;;5054637;28;20218;-88
2022/08/31 04:00:11;;;;;;;5.50;4.00;;;16.70;99.90;17.70;96942.00;;;;5052350;28;20193;-88
2022/08/31 04:03:01;;;;;;;8.63;4.67;;;16.70;99.90;17.60;96944.00;;;;5057773;28;20596;-87
2022/08/31 04:05:50;;;;;;;7.17;4.77;;;16.60;99.90;17.70;96947.00;;;;5064699;28;20688;-88
2022/08/31 04:08:40;;;;;;;4.97;3.47;;;16.60;99.90;17.80;96947.00;;;;5065641;28;20561;-88
2022/08/31 04:11:29;;;;;;;6.07;3.73;;;16.60;99.90;17.60;96948.00;;;;5072729;28;20302;-88
2022/08/31 04:14:19;;;;;;;6.50;4.70;;;16.60;99.90;17.50;96956.00;;;;5072987;28;20211;-88
2022/08/31 04:17:10;;;;;;;4.77;3.73;;;16.50;99.90;17.60;96962.00;;;;5071412;28;20211;-88
2022/08/31 04:19:59;;;;;;;6.33;4.23;;;16.60;99.90;17.70;96957.00;;;;5064066;28;20210;-88
2022/08/31 04:22:48;;;;;;;6.97;3.40;;;16.50;99.90;17.90;96958.00;;;;5072087;28;20216;-88
2022/08/31 04:25:41;;;;;;;6.80;3.67;;;16.60;99.90;18.10;96964.00;;;;5072707;28;20200;-89
2022/08/31 04:28:30;;;;;;;6.93;4.33;;;16.70;99.90;18.10;96959.00;;;;5072074;28;20207;-88
2022/08/31 04:31:22;;;;;;;4.50;3.53;;;16.70;99.90;18.10;96966.00;;;;5072853;28;20669;-88
2022/08/31 04:34:11;;;;;;;5.37;4.63;;;16.80;99.90;18.20;96959.00;;;;5070997;28;20195;-88
2022/08/31 04:37:00;;;;;;;3.90;3.50;;;16.80;99.90;18.40;96946.00;;;;5072282;28;20227;-88
2022/08/31 04:39:49;;;;;;;4.67;4.27;;;16.90;99.90;18.50;96945.00;;;;5073467;28;20673;-88
2022/08/31 04:42:38;;;;;;;11.53;4.70;;;17.00;99.90;18.40;96945.00;;;;5077976;28;20232;-88
2022/08/31 04:45:28;;;;;;;5.43;4.73;;;17.00;99.90;18.50;96945.00;;;;5072598;28;20195;-88
2022/08/31 04:48:18;;;;;;;6.43;4.50;;;17.10;99.90;18.50;96954.00;;;;5072132;28;20230;-88
2022/08/31 04:51:11;;;;;;;4.43;3.97;;;17.10;99.90;18.60;96947.00;;;;5072351;28;20203;-89
2022/08/31 04:53:59;;;;;;;4.40;3.73;;;17.20;99.90;18.50;96953.00;;;;5070734;28;20200;-89
2022/08/31 04:56:48;;;;;;;4.70;4.20;;;17.20;99.90;18.50;96950.00;;;;5070339;28;20231;-88
2022/08/31 04:59:37;;;;;;;3.50;3.20;;;17.20;99.90;18.50;96955.00;;;;5072337;28;20200;-88
2022/08/31 05:02:26;;;;;;;5.37;3.50;;;17.20;99.90;18.60;96948.00;;;;5066519;28;20212;-88
2022/08/31 05:05:16;;;;;;;9.50;4.13;;;17.20;99.90;18.60;96941.00;;;;5072297;28;20704;-88
2022/08/31 05:08:05;;;;;;;6.30;4.30;;;17.20;99.90;18.50;96944.00;;;;5071148;28;20211;-88
2022/08/31 05:10:54;;;;;;;4.80;3.13;;;17.30;99.90;18.40;96953.00;;;;5071559;28;20204;-88
2022/08/31 05:13:44;;;;;;;6.30;3.70;;;17.30;99.90;18.30;96955.00;;;;5064887;28;20236;-89
2022/08/31 05:16:34;;;;;;;9.00;4.40;;;17.30;99.90;18.60;96957.00;;;;5062741;28;20615;-88
2022/08/31 05:19:22;;;;;;;5.33;4.33;;;17.20;99.90;19.00;96948.00;;;;5058601;28;20673;-88
2022/08/31 05:22:13;;;;;;;4.23;3.83;;;17.30;99.90;19.10;96947.00;;;;5070509;28;20222;-88
2022/08/31 05:25:04;;;;;;;4.43;3.77;;;17.40;99.90;19.20;96947.00;;;;5071647;28;20263;-88
2022/08/31 05:27:54;;;;;;;6.37;4.67;;;17.60;99.90;19.30;96945.00;;;;5070975;28;20196;-88
2022/08/31 05:30:44;;;;;;;4.10;3.73;;;17.70;99.90;19.20;96940.00;;;;5070162;28;20191;-89
2022/08/31 05:33:33;;;;;;;4.43;3.63;;;17.80;99.90;19.30;96944.00;;;;5067100;28;20224;-88
2022/08/31 05:36:22;;;;;;;8.53;3.73;;;17.90;99.90;19.40;96955.00;;;;5063810;28;20196;-88
2022/08/31 05:39:13;;;;;;;5.37;3.90;;;17.90;99.90;19.40;96946.00;;;;5062630;28;20908;-88
2022/08/31 05:42:02;;;;;;;6.77;4.20;;;18.00;99.90;19.60;96949.00;;;;5064192;28;20215;-89
2022/08/31 05:44:51;;;;;;;4.73;4.23;;;18.10;99.90;19.60;96950.00;;;;5066941;28;20202;-88
2022/08/31 05:47:40;;;;;;;8.40;4.83;;;18.10;99.90;19.40;96946.00;;;;5068014;28;20211;-88
2022/08/31 05:50:29;;;;;;;8.27;3.97;;;18.10;99.90;19.30;96944.00;;;;5063611;28;20204;-88
2022/08/31 05:53:18;;;;;;;6.37;4.67;;;18.10;99.90;19.30;96951.00;;;;5061425;28;20220;-89
2022/08/31 05:56:12;;;;;;;7.23;4.50;;;18.10;99.90;19.30;96956.00;;;;5061646;28;20665;-89
2022/08/31 05:59:01;;;;;;;6.73;5.33;;;18.10;99.90;19.70;96962.00;;;;5061930;28;20671;-89
2022/08/31 06:01:50;;;;;;;8.10;4.97;;;18.20;99.90;19.70;96953.00;;;;5058626;28;20221;-89
2022/08/31 06:04:38;;;;;;;6.70;4.33;;;18.20;99.90;20.00;96958.00;;;;5062550;28;20731;-89
2022/08/31 06:07:27;;;;;;;6.53;4.23;;;18.30;99.90;20.20;96956.00;;;;5066884;28;20203;-90
2022/08/31 06:10:18;;;;;;;7.33;4.80;;;18.40;99.90;20.20;96961.00;;;;5062790;28;20218;-89
2022/08/31 06:13:09;;;;;;;6.93;4.40;;;18.50;99.90;20.30;96965.00;;;;5065836;28;20223;-89
2022/08/31 06:15:59;;;;;;;6.80;5.13;;;18.70;99.90;20.30;96963.00;;;;5067661;28;20204;-88
2022/08/31 06:18:49;;;;;;;4.87;4.20;;;18.70;99.90;20.50;96960.00;;;;5069670;28;20228;-89
2022/08/31 06:21:42;;;;;;;6.23;4.30;;;18.80;99.90;20.60;96960.00;;;;5065331;28;20219;-88
2022/08/31 06:24:31;;;;;;;7.63;4.27;;;18.90;99.90;20.70;96962.00;;;;5064300;28;20639;-89
2022/08/31 06:27:20;;;;;;;4.90;3.90;;;19.00;99.90;20.70;96957.00;;;;5067358;28;20641;-88
2022/08/31 06:30:11;;;;;;;7.20;4.20;;;19.00;99.90;20.50;96962.00;;;;5062437;28;20196;-89
2022/08/31 06:33:03;;;;;;;4.57;4.07;;;19.10;99.90;20.80;96953.00;;;;5060563;28;20219;-90
2022/08/31 06:35:55;;;;;;;7.53;4.43;;;19.20;99.90;20.90;96963.00;;;;5062248;28;20258;-90
2022/08/31 06:38:43;;;;;;;5.93;3.70;;;19.30;99.90;20.90;96962.00;;;;5059185;28;20227;-90
2022/08/31 06:41:35;;;;;;;10.60;4.67;;;19.30;99.90;21.00;96962.00;;;;5063904;28;20226;-90
2022/08/31 06:44:25;;;;;;;4.47;4.07;;;19.40;99.90;20.90;96961.00;;;;5066706;28;20193;-89
2022/08/31 06:47:15;;;;;;;7.07;5.33;;;19.50;99.90;20.90;96970.00;;;;5064195;28;20200;-89
2022/08/31 06:50:06;;;;;;;7.50;5.43;;;19.50;99.90;21.00;96966.00;;;;5066465;28;20251;-89
2022/08/31 06:52:56;;;;;;;5.10;4.03;;;19.50;99.90;21.10;96961.00;;;;5066959;28;20215;-90
2022/08/31 06:55:44;;;;;;;6.60;3.60;;;19.60;99.90;21.20;96970.00;;;;5061554;28;20587;-90
2022/08/31 06:58:34;;;;;;;8.03;3.97;;;19.60;99.90;21.30;96959.00;;;;5049667;28;20517;-90
2022/08/31 07:01:27;;;;;;;6.70;4.70;;;19.60;99.90;21.40;96971.00;;;;5053654;28;20203;-90
2022/08/31 07:04:18;;;;;;;6.67;4.10;;;19.70;99.90;21.50;96974.00;;;;5060626;28;20208;-91
2022/08/31 07:07:10;;;;;;;5.57;5.03;;;19.70;99.90;21.50;96963.00;;;;5059600;28;20207;-90
2022/08/31 07:09:59;;;;;;;9.03;4.60;;;19.80;99.90;21.50;96964.00;;;;5061096;28;20574;-90
2022/08/31 07:12:48;;;;;;;15.23;4.93;;;19.80;99.90;21.40;96964.00;;;;5057620;28;20236;-90
2022/08/31 07:15:38;;;;;;;9.67;5.20;;;19.90;99.90;21.20;96965.00;;;;5059715;28;20211;-90
2022/08/31 07:18:27;;;;;;;8.47;4.83;;;21.20;99.90;20.80;96982.00;;;;5052776;28;20224;-89
2022/08/31 07:21:20;;;;;;;6.83;4.30;;;19.80;99.90;20.60;96992.00;;;;5061492;28;20211;-90
2022/08/31 07:24:26;;;;;;;3.90;3.37;;;19.70;99.90;19.70;96991.00;;;;5053280;28;20195;-88
2022/08/31 07:27:17;;;;;;;4.87;3.70;;;19.30;99.90;19.90;96990.00;;;;5053265;28;20204;-90
2022/08/31 07:34:09;;;;;;;8.27;4.00;;;18.90;99.90;19.30;97002.00;;;;5025603;28;20306;-75
2022/08/31 07:43:15;;;;;;;9.43;4.07;;;18.30;99.90;19.30;96987.00;;;;5035043;28;20561;-75
2022/08/31 07:48:38;;;;;;;6.07;4.63;;;18.10;99.90;18.60;96992.00;;;;5037796;28;20672;-68
2022/08/31 07:51:27;;;;;;;5.87;4.73;;;18.00;99.90;18.90;97004.00;;;;5035370;28;20212;-71
2022/08/31 07:54:22;;;;;;;5.97;4.13;;;17.90;99.90;19.30;97002.00;;;;5034776;28;20211;-72
2022/08/31 07:57:12;;;;;;;4.77;4.10;;;18.00;99.90;19.00;97013.00;;;;5040940;28;20197;-72
2022/08/31 08:00:07;;;;;;;8.57;4.30;;;18.00;99.90;19.20;97015.00;;;;5036568;28;20216;-73
2022/08/31 08:03:06;;;;;;;4.43;3.70;;;17.90;99.90;19.30;97019.00;;;;5031634;28;20209;-72
2022/08/31 08:05:55;;;;;;;3.70;3.40;;;18.00;99.90;19.20;97019.00;;;;5034431;28;20232;-73
2022/08/31 08:08:45;;;;;;;5.90;3.87;;;17.90;99.90;19.20;97021.00;;;;5036943;28;20208;-71
2022/08/31 08:11:48;;;;;;;8.07;5.00;;;17.90;99.90;19.30;97034.00;;;;5037127;28;20190;-72
2022/08/31 08:14:39;;;;;;;5.73;5.17;;;17.90;99.90;19.20;97036.00;;;;5032913;28;20231;-72
2022/08/31 08:17:28;;;;;;;8.00;4.53;;;17.90;99.90;18.60;97041.00;;;;5034984;28;20209;-72
2022/08/31 08:20:18;;;;;;;4.70;4.20;;;17.80;99.90;18.60;97036.00;;;;5031174;28;20204;-72
2022/08/31 08:23:12;;;;;;;5.37;4.87;;;17.70;99.90;18.40;97039.00;;;;5042753;28;20220;-72
2022/08/31 08:26:09;;;;;;;6.47;4.87;;;17.70;99.90;18.70;97037.00;;;;5043216;28;20235;-71
2022/08/31 08:28:59;;;;;;;7.20;4.90;;;17.60;99.90;18.60;97036.00;;;;5044857;28;20201;-72
2022/08/31 08:31:51;;;;;;;6.77;4.83;;;17.60;99.90;18.90;97031.00;;;;5035229;28;20217;-72
2022/08/31 08:34:42;;;;;;;5.93;4.57;;;17.60;99.90;19.20;97032.00;;;;5039932;28;20615;-72
2022/08/31 08:37:31;;;;;;;6.87;4.73;;;17.60;99.90;19.20;97029.00;;;;5035695;28;20205;-72
2022/08/31 08:40:41;;;;;;;6.30;4.27;;;17.70;99.90;18.60;97029.00;;;;5032242;28;20201;-73
2022/08/31 08:43:33;;;;;;;7.77;4.07;;;17.70;99.90;18.00;97028.00;;;;5036152;28;20204;-74
2022/08/31 08:46:30;;;;;;;9.70;4.17;;;17.50;99.90;18.10;97042.00;;;;5041187;28;20213;-73
2022/08/31 08:49:32;;;;;;;6.90;3.97;;;17.30;99.90;18.40;97045.00;;;;5040991;28;20205;-73
2022/08/31 08:52:26;;;;;;;6.90;4.03;;;17.30;99.90;18.80;97047.00;;;;5033587;28;20193;-72
2022/08/31 08:55:17;;;;;;;7.87;5.07;;;17.30;99.90;18.90;97055.00;;;;5038799;28;20229;-72
2022/08/31 08:58:09;;;;;;;6.47;4.13;;;17.40;99.90;19.10;97052.00;;;;5038089;28;20224;-72
2022/08/31 09:00:59;;;;;;;6.00;4.60;;;17.50;99.90;18.90;97054.00;;;;5038994;28;20201;-71
2022/08/31 09:04:00;;;;;;;4.73;4.27;;;17.60;99.90;18.60;97056.00;;;;5040606;28;20197;-72
2022/08/31 09:06:58;;;;;;;6.50;4.50;;;17.60;99.90;18.80;97042.00;;;;5038484;28;20587;-72
2022/08/31 09:09:57;;;;;;;6.17;4.10;;;17.60;99.90;18.50;97047.00;;;;5044101;28;20200;-72
2022/08/31 09:12:56;;;;;;;6.23;3.80;;;17.50;99.90;18.60;97041.00;;;;5031598;28;20580;-71
2022/08/31 09:16:03;;;;;;;6.20;4.27;;;17.50;99.90;18.30;97038.00;;;;5038613;28;20711;-71
2022/08/31 09:18:57;;;;;;;7.47;4.97;;;17.40;99.90;18.30;97042.00;;;;5038286;28;20738;-69
2022/08/31 09:21:49;;;;;;;6.07;4.53;;;17.40;99.90;18.20;97034.00;;;;5034079;28;20593;-72
2022/08/31 09:24:38;;;;;;;7.20;5.63;;;17.30;99.90;18.60;97031.00;;;;5042296;28;20220;-72
2022/08/31 09:27:46;;;;;;;7.07;4.97;;;17.30;99.90;19.00;97028.00;;;;5045048;28;20200;-72
2022/08/31 09:30:50;;;;;;;8.57;5.83;;;17.40;99.90;19.20;97029.00;;;;5038860;28;20330;-72
2022/08/31 09:33:49;;;;;;;7.53;4.63;;;17.50;99.90;19.50;97026.00;;;;5043883;28;20624;-72
2022/08/31 09:36:41;;;;;;;9.17;5.67;;;17.70;99.90;19.80;97030.00;;;;5042527;28;20625;-72
2022/08/31 09:39:31;;;;;;;7.57;5.27;;;18.00;99.90;20.20;97032.00;;;;5039916;28;20220;-72
2022/08/31 09:42:29;;;;;;;5.13;4.60;;;18.20;99.90;20.30;97033.00;;;;5040262;28;20206;-72
2022/08/31 09:45:28;;;;;;;5.40;3.77;;;18.40;99.90;20.30;97030.00;;;;5038303;28;20223;-72
2022/08/31 09:48:42;;;;;;;6.67;3.97;;;18.60;99.90;20.60;97033.00;;;;5039893;28;20215;-72
2022/08/31 09:51:33;;;;;;;4.80;4.37;;;18.70;99.90;20.80;97034.00;;;;5041377;28;20219;-72
2022/08/31 09:57:51;;;;;;;5.80;3.83;;;19.00;99.90;20.50;97022.00;;;;5036213;28;20235;-72
2022/08/31 10:00:45;;;;;;;5.60;3.87;;;19.10;99.90;20.60;97018.00;;;;5038964;28;20253;-72
2022/08/31 10:03:36;;;;;;;5.83;3.80;;;19.10;99.90;20.70;97013.00;;;;5037841;28;20572;-72
2022/08/31 10:06:45;;;;;;;4.90;3.73;;;19.20;99.90;20.60;97014.00;;;;5033087;28;20223;-72
2022/08/31 10:09:43;;;;;;;8.03;4.47;;;19.20;99.90;20.50;97017.00;;;;5037895;28;20202;-72
2022/08/31 10:12:43;;;;;;;4.80;4.30;;;19.20;99.90;20.40;97012.00;;;;5041591;28;20563;-72
2022/08/31 10:15:40;;;;;;;4.47;4.00;;;19.10;99.90;20.40;97019.00;;;;5033775;28;20256;-72
2022/08/31 10:18:38;;;;;;;4.20;3.57;;;19.20;99.90;20.50;97012.00;;;;5033375;28;20196;-72
2022/08/31 10:21:43;;;;;;;5.63;4.10;;;19.10;99.90;20.60;97001.00;;;;5040711;28;20259;-72
2022/08/31 10:24:42;;;;;;;5.80;3.90;;;19.10;99.90;20.40;97005.00;;;;5039682;28;20223;-72
2022/08/31 10:27:39;;;;;;;5.47;4.20;;;19.20;99.90;20.40;96988.00;;;;5040301;28;20200;-72
2022/08/31 10:30:36;;;;;;;7.13;4.60;;;19.20;99.90;21.00;96986.00;;;;5036474;28;20193;-72
2022/08/31 10:35:01;;;;;;;7.33;3.90;;;19.40;99.90;21.90;96977.00;;;;5044309;28;20201;-72
2022/08/31 10:36:41;;;;;;;5.73;4.20;;;19.60;99.90;21.90;96978.00;;;;5041232;28;20205;-72
2022/08/31 10:39:40;;;;;;;6.47;4.00;;;20.00;99.90;22.20;96986.00;;;;5044962;28;20224;-71
2022/08/31 10:42:36;;;;;;;5.33;4.67;;;20.20;99.90;22.20;96983.00;;;;5031375;28;20687;-72
2022/08/31 10:45:29;;;;;;;5.40;3.70;;;20.40;99.90;22.00;96976.00;;;;5028866;28;20607;-71
2022/08/31 10:48:20;;;;;;;4.97;3.43;;;20.50;99.90;21.70;96975.00;;;;5043147;28;20590;-72
2022/08/31 10:51:21;;;;;;;8.27;3.57;;;20.60;99.90;21.30;96968.00;;;;5027830;28;20212;-71
2022/08/31 10:54:27;;;;;;;4.70;3.60;;;20.50;99.90;21.60;96963.00;;;;5034370;28;20216;-72
2022/08/31 10:57:31;;;;;;;4.97;3.97;;;20.40;99.90;21.90;96957.00;;;;5029865;28;20219;-71
2022/08/31 11:03:51;;;;;;;8.20;3.70;;;20.70;99.90;23.00;96960.00;;;;5040345;28;20578;-72
2022/08/31 11:06:50;;;;;;;5.63;3.47;;;20.90;99.90;22.70;96960.00;;;;5032467;28;20479;-71
2022/08/31 11:09:53;;;;;;;6.83;3.70;;;21.10;99.90;22.80;96953.00;;;;5031169;28;20623;-71
2022/08/31 11:12:50;;;;;;;5.80;3.63;;;21.10;99.90;23.00;96955.00;;;;5038450;28;20204;-71
2022/08/31 11:15:59;;;;;;;6.27;4.20;;;21.20;99.90;23.20;96956.00;;;;5038291;28;20228;-71
2022/08/31 11:19:25;;;;;;;5.60;3.53;;;21.40;99.90;23.30;96955.00;;;;5036978;28;20208;-71
2022/08/31 11:22:52;;;;;;;4.37;3.60;;;21.50;99.90;23.00;96955.00;;;;5041985;28;20205;-71
2022/08/31 11:26:37;;;;;;;4.13;2.93;;;21.50;99.90;23.20;96958.00;;;;5038780;28;20231;-71
2022/08/31 11:29:40;;;;;;;5.87;3.17;;;21.50;99.90;23.40;96943.00;;;;5035170;28;20223;-72
2022/08/31 11:32:35;;;;;;;4.67;3.40;;;21.10;99.90;23.10;96945.00;;;;5028508;28;20571;-71
2022/08/31 11:35:59;;;;;;;5.43;3.70;;;21.60;99.90;22.70;96947.00;;;;5032579;28;20217;-72
2022/08/31 11:38:53;;;;;;;5.77;3.40;;;21.50;99.90;22.60;96943.00;;;;5034224;28;20238;-72
2022/08/31 11:41:45;;;;;;;6.03;2.80;;;21.40;99.90;22.40;96955.00;;;;5029774;28;20205;-71
2022/08/31 11:45:16;;;;;;;3.77;3.30;;;21.20;99.90;22.30;96953.00;;;;5035528;28;20220;-71
2022/08/31 11:48:06;;;;;;;6.60;3.53;;;21.10;99.90;22.30;96955.00;;;;5039290;28;20216;-72
2022/08/31 11:51:07;;;;;;;5.93;3.17;;;21.00;99.90;22.10;96952.00;;;;5032963;28;20676;-71
2022/08/31 11:53:56;;;;;;;4.50;4.10;;;20.80;99.90;22.00;96951.00;;;;5035562;28;20205;-71
2022/08/31 11:56:46;;;;;;;6.60;3.23;;;20.70;99.90;21.90;96956.00;;;;5035536;28;20213;-71
2022/08/31 11:59:39;;;;;;;5.17;3.70;;;20.60;99.90;22.00;96951.00;;;;5037740;28;20220;-72
2022/08/31 12:02:44;;;;;;;9.60;3.97;;;20.60;99.90;22.10;96942.00;;;;5026790;28;20209;-71
2022/08/31 12:05:49;;;;;;;4.13;3.27;;;20.60;99.90;22.20;96953.00;;;;5038774;28;20231;-72
2022/08/31 12:08:51;;;;;;;6.90;3.90;;;20.60;99.90;22.20;96956.00;;;;5027253;28;20291;-71
2022/08/31 12:11:47;;;;;;;6.83;3.10;;;20.60;99.90;22.00;96953.00;;;;5032894;28;20205;-72
2022/08/31 12:14:46;;;;;;;5.10;3.43;;;20.60;99.90;21.90;96952.00;;;;5039533;28;20614;-71
2022/08/31 12:17:51;;;;;;;4.80;3.83;;;20.50;99.90;22.00;96958.00;;;;5032633;28;20196;-71
2022/08/31 12:24:19;;;;;;;4.00;3.13;;;20.40;99.90;21.90;96952.00;;;;5038704;28;20209;-71
2022/08/31 12:27:26;;;;;;;4.87;4.20;;;20.40;99.90;21.90;96956.00;;;;5028329;28;20216;-72
2022/08/31 12:30:22;;;;;;;4.57;3.67;;;20.40;99.90;21.90;96953.00;;;;5043118;28;20215;-71
2022/08/31 12:33:17;;;;;;;5.23;3.93;;;20.40;99.90;21.70;96954.00;;;;5045655;28;20209;-70
2022/08/31 12:36:17;;;;;;;4.97;3.53;;;20.30;99.90;21.70;96954.00;;;;5042097;28;20217;-71
2022/08/31 12:39:09;;;;;;;5.27;3.87;;;20.30;99.90;21.50;96954.00;;;;5043479;28;20216;-71
2022/08/31 12:42:03;;;;;;;5.17;3.37;;;20.20;99.90;21.40;96954.00;;;;5042542;28;20215;-71
2022/08/31 12:44:53;;;;;;;4.60;3.40;;;20.10;99.90;21.20;96957.00;;;;5037715;28;20707;-70
2022/08/31 12:47:54;;;;;;;4.77;3.83;;;20.00;99.90;21.20;96951.00;;;;5035396;28;20213;-70
2022/08/31 12:50:52;;;;;;;3.63;3.33;;;19.90;99.90;21.40;96950.00;;;;5034829;28;20215;-71
2022/08/31 12:54:08;;;;;;;6.63;3.57;;;19.90;99.90;21.50;96948.00;;;;5044848;28;20201;-70
2022/08/31 12:57:07;;;;;;;6.23;4.60;;;19.90;99.90;21.40;96956.00;;;;5035169;28;20203;-71
2022/08/31 13:00:06;;;;;;;4.63;4.10;;;20.00;99.90;21.20;96945.00;;;;5036134;28;20228;-70
2022/08/31 13:03:00;;;;;;;4.67;4.27;;;19.90;99.90;21.10;96942.00;;;;5034485;28;20234;-70
2022/08/31 13:06:07;;;;;;;4.23;3.83;;;19.80;99.90;21.10;96946.00;;;;5040373;28;20222;-70
2022/08/31 13:08:58;;;;;;;5.60;4.60;;;19.80;99.90;21.00;96935.00;;;;5041653;28;20216;-69
2022/08/31 13:11:53;;;;;;;7.60;4.30;;;19.70;99.90;21.00;96944.00;;;;5033200;28;20201;-70
2022/08/31 13:14:43;;;;;;;5.07;4.50;;;19.60;99.90;20.90;96945.00;;;;5042240;28;20216;-70
2022/08/31 13:17:38;;;;;;;7.90;3.73;;;19.60;99.90;20.90;96939.00;;;;5040398;28;20193;-71
2022/08/31 13:20:34;;;;;;;7.43;4.73;;;19.50;99.90;21.00;96941.00;;;;5043271;28;20696;-71